sensor_id;sensor_type;location;lat;lon;timestamp;temperature;humidity
45096;DHT22;30858;51.108;8.068;2023-02-15T00:01:37;-0.70;99.90
45096;DHT22;30858;51.108;8.068;2023-02-15T00:04:04;-0.70;99.90
45096;DHT22;30858;51.108;8.068;2023-02-15T00:06:30;-0.80;99.90
45096;DHT22;30858;51.108;8.068;2023-02-15T00:08:56;-0.80;99.90
45096;DHT22;30858;51.108;8.068;2023-02-15T00:11:22;-0.80;99.90
45096;DHT22;30858;51.108;8.068;2023-02-15T00:14:20;-0.80;99.90
45096;DHT22;30858;51.108;8.068;2023-02-15T00:16:47;-0.90;99.90
45096;DHT22;30858;51.108;8.068;2023-02-15T00:19:15;-0.90;99.90
45096;DHT22;30858;51.108;8.068;2023-02-15T00:21:41;-0.90;99.90
45096;DHT22;30858;51.108;8.068;2023-02-15T00:24:08;-0.80;99.90
45096;DHT22;30858;51.108;8.068;2023-02-15T00:26:35;-0.80;99.90
45096;DHT22;30858;51.108;8.068;2023-02-15T00:29:01;-0.80;99.90
45096;DHT22;30858;51.108;8.068;2023-02-15T00:31:29;-0.90;99.90
45096;DHT22;30858;51.108;8.068;2023-02-15T00:34:18;-0.90;99.90
45096;DHT22;30858;51.108;8.068;2023-02-15T00:36:43;-0.90;99.90
45096;DHT22;30858;51.108;8.068;2023-02-15T00:39:09;-0.80;99.90
45096;DHT22;30858;51.108;8.068;2023-02-15T00:41:35;-0.80;99.90
45096;DHT22;30858;51.108;8.068;2023-02-15T00:44:01;-0.80;99.90
45096;DHT22;30858;51.108;8.068;2023-02-15T00:46:27;-0.70;99.90
45096;DHT22;30858;51.108;8.068;2023-02-15T00:48:52;-0.80;99.90
45096;DHT22;30858;51.108;8.068;2023-02-15T00:51:18;-0.80;99.90
45096;DHT22;30858;51.108;8.068;2023-02-15T00:53:44;-0.80;99.90
45096;DHT22;30858;51.108;8.068;2023-02-15T00:56:10;-0.90;99.90
45096;DHT22;30858;51.108;8.068;2023-02-15T00:58:35;-0.90;99.90
45096;DHT22;30858;51.108;8.068;2023-02-15T01:01:07;-0.90;99.90
45096;DHT22;30858;51.108;8.068;2023-02-15T01:03:33;-0.90;99.90
45096;DHT22;30858;51.108;8.068;2023-02-15T01:05:58;-0.90;99.90
45096;DHT22;30858;51.108;8.068;2023-02-15T01:08:24;-0.90;99.90
45096;DHT22;30858;51.108;8.068;2023-02-15T01:10:50;-0.90;99.90
45096;DHT22;30858;51.108;8.068;2023-02-15T01:13:16;-0.90;99.90
45096;DHT22;30858;51.108;8.068;2023-02-15T01:15:43;-0.90;99.90
45096;DHT22;30858;51.108;8.068;2023-02-15T01:18:10;-0.90;99.90
45096;DHT22;30858;51.108;8.068;2023-02-15T01:20:38;-0.90;99.90
45096;DHT22;30858;51.108;8.068;2023-02-15T01:23:05;-1.00;99.90
45096;DHT22;30858;51.108;8.068;2023-02-15T01:25:32;-0.90;99.90
45096;DHT22;30858;51.108;8.068;2023-02-15T01:27:58;-0.90;99.90
45096;DHT22;30858;51.108;8.068;2023-02-15T01:30:23;-1.00;99.90
45096;DHT22;30858;51.108;8.068;2023-02-15T01:32:49;-1.00;99.90
45096;DHT22;30858;51.108;8.068;2023-02-15T01:35:14;-1.00;99.90
45096;DHT22;30858;51.108;8.068;2023-02-15T01:37:40;-1.00;99.90
45096;DHT22;30858;51.108;8.068;2023-02-15T01:40:08;-1.10;99.90
45096;DHT22;30858;51.108;8.068;2023-02-15T01:42:34;-1.20;99.90
45096;DHT22;30858;51.108;8.068;2023-02-15T01:45:02;-1.20;99.90
45096;DHT22;30858;51.108;8.068;2023-02-15T01:50:44;-1.30;99.90
45096;DHT22;30858;51.108;8.068;2023-02-15T01:53:31;-1.30;99.90
45096;DHT22;30858;51.108;8.068;2023-02-15T01:56:01;-1.30;99.90
45096;DHT22;30858;51.108;8.068;2023-02-15T01:58:29;-1.30;99.90
45096;DHT22;30858;51.108;8.068;2023-02-15T02:00:56;-1.30;99.90
45096;DHT22;30858;51.108;8.068;2023-02-15T02:03:36;-1.30;99.90
45096;DHT22;30858;51.108;8.068;2023-02-15T02:06:04;-1.30;99.90
45096;DHT22;30858;51.108;8.068;2023-02-15T02:08:30;-1.30;99.90
45096;DHT22;30858;51.108;8.068;2023-02-15T02:10:56;-1.30;99.90
45096;DHT22;30858;51.108;8.068;2023-02-15T02:13:21;-1.20;99.90
45096;DHT22;30858;51.108;8.068;2023-02-15T02:27:32;-1.30;99.90
45096;DHT22;30858;51.108;8.068;2023-02-15T02:30:18;-1.40;99.90
45096;DHT22;30858;51.108;8.068;2023-02-15T02:43:33;-1.50;99.90
45096;DHT22;30858;51.108;8.068;2023-02-15T02:46:07;-1.50;99.90
45096;DHT22;30858;51.108;8.068;2023-02-15T02:48:36;-1.50;99.90
45096;DHT22;30858;51.108;8.068;2023-02-15T02:51:02;-1.50;99.90
45096;DHT22;30858;51.108;8.068;2023-02-15T02:53:30;-1.50;99.90
45096;DHT22;30858;51.108;8.068;2023-02-15T02:56:01;-1.50;99.90
45096;DHT22;30858;51.108;8.068;2023-02-15T02:58:49;-1.60;99.90
45096;DHT22;30858;51.108;8.068;2023-02-15T03:01:33;-1.60;99.90
45096;DHT22;30858;51.108;8.068;2023-02-15T03:04:12;-1.70;99.90
45096;DHT22;30858;51.108;8.068;2023-02-15T03:09:18;-1.70;99.90
45096;DHT22;30858;51.108;8.068;2023-02-15T03:11:46;-1.70;99.90
45096;DHT22;30858;51.108;8.068;2023-02-15T03:14:14;-1.60;99.90
45096;DHT22;30858;51.108;8.068;2023-02-15T03:16:42;-1.60;99.90
45096;DHT22;30858;51.108;8.068;2023-02-15T03:19:17;-1.50;99.90
45096;DHT22;30858;51.108;8.068;2023-02-15T03:21:49;-1.50;99.90
45096;DHT22;30858;51.108;8.068;2023-02-15T03:24:25;-1.40;99.90
45096;DHT22;30858;51.108;8.068;2023-02-15T03:26:53;-1.30;99.90
45096;DHT22;30858;51.108;8.068;2023-02-15T03:29:21;-1.30;99.90
45096;DHT22;30858;51.108;8.068;2023-02-15T03:31:53;-1.40;99.90
45096;DHT22;30858;51.108;8.068;2023-02-15T03:34:20;-1.30;99.90
45096;DHT22;30858;51.108;8.068;2023-02-15T03:36:52;-1.50;99.90
45096;DHT22;30858;51.108;8.068;2023-02-15T03:39:33;-1.60;99.90
45096;DHT22;30858;51.108;8.068;2023-02-15T03:44:31;-1.60;99.90
45096;DHT22;30858;51.108;8.068;2023-02-15T03:47:06;-1.70;99.90
45096;DHT22;30858;51.108;8.068;2023-02-15T03:49:59;-1.70;99.90
45096;DHT22;30858;51.108;8.068;2023-02-15T03:52:28;-1.70;99.90
45096;DHT22;30858;51.108;8.068;2023-02-15T03:54:55;-1.70;99.90
45096;DHT22;30858;51.108;8.068;2023-02-15T03:57:26;-1.70;99.90
45096;DHT22;30858;51.108;8.068;2023-02-15T04:00:16;-1.80;99.90
45096;DHT22;30858;51.108;8.068;2023-02-15T04:03:22;-1.80;99.90
45096;DHT22;30858;51.108;8.068;2023-02-15T04:05:49;-1.90;99.90
45096;DHT22;30858;51.108;8.068;2023-02-15T04:08:14;-1.90;99.90
45096;DHT22;30858;51.108;8.068;2023-02-15T04:10:40;-2.00;99.90
45096;DHT22;30858;51.108;8.068;2023-02-15T04:13:30;-1.90;99.90
45096;DHT22;30858;51.108;8.068;2023-02-15T04:15:56;-2.00;99.90
45096;DHT22;30858;51.108;8.068;2023-02-15T04:18:38;-2.00;99.90
45096;DHT22;30858;51.108;8.068;2023-02-15T04:21:24;-2.00;99.90
45096;DHT22;30858;51.108;8.068;2023-02-15T04:24:09;-2.00;99.90
45096;DHT22;30858;51.108;8.068;2023-02-15T04:26:53;-2.10;99.90
45096;DHT22;30858;51.108;8.068;2023-02-15T04:29:20;-2.10;99.90
45096;DHT22;30858;51.108;8.068;2023-02-15T04:31:46;-2.10;99.90
45096;DHT22;30858;51.108;8.068;2023-02-15T04:34:12;-2.10;99.90
45096;DHT22;30858;51.108;8.068;2023-02-15T04:36:38;-2.00;99.90
45096;DHT22;30858;51.108;8.068;2023-02-15T04:39:05;-2.00;99.90
45096;DHT22;30858;51.108;8.068;2023-02-15T04:41:31;-2.00;99.90
45096;DHT22;30858;51.108;8.068;2023-02-15T04:43:56;-1.90;99.90
45096;DHT22;30858;51.108;8.068;2023-02-15T04:46:22;-1.90;99.90
45096;DHT22;30858;51.108;8.068;2023-02-15T04:48:48;-1.90;99.90
45096;DHT22;30858;51.108;8.068;2023-02-15T04:51:14;-1.90;99.90
45096;DHT22;30858;51.108;8.068;2023-02-15T04:53:39;-1.80;99.90
45096;DHT22;30858;51.108;8.068;2023-02-15T04:56:05;-1.80;99.90
45096;DHT22;30858;51.108;8.068;2023-02-15T04:58:31;-1.90;99.90
45096;DHT22;30858;51.108;8.068;2023-02-15T05:00:56;-1.90;99.90
45096;DHT22;30858;51.108;8.068;2023-02-15T05:03:23;-2.10;99.90
45096;DHT22;30858;51.108;8.068;2023-02-15T05:05:48;-2.10;99.90
45096;DHT22;30858;51.108;8.068;2023-02-15T05:08:14;-2.20;99.90
45096;DHT22;30858;51.108;8.068;2023-02-15T05:10:40;-2.30;99.90
45096;DHT22;30858;51.108;8.068;2023-02-15T05:13:05;-2.20;99.90
45096;DHT22;30858;51.108;8.068;2023-02-15T05:15:31;-2.30;99.90
45096;DHT22;30858;51.108;8.068;2023-02-15T05:17:56;-2.30;99.90
45096;DHT22;30858;51.108;8.068;2023-02-15T05:20:22;-2.30;99.90
45096;DHT22;30858;51.108;8.068;2023-02-15T05:22:48;-2.30;99.90
45096;DHT22;30858;51.108;8.068;2023-02-15T05:25:13;-2.40;99.90
45096;DHT22;30858;51.108;8.068;2023-02-15T05:27:58;-2.40;99.90
45096;DHT22;30858;51.108;8.068;2023-02-15T05:30:42;-2.30;99.90
45096;DHT22;30858;51.108;8.068;2023-02-15T05:33:08;-2.30;99.90
45096;DHT22;30858;51.108;8.068;2023-02-15T05:35:34;-2.40;99.90
45096;DHT22;30858;51.108;8.068;2023-02-15T05:38:00;-2.40;99.90
45096;DHT22;30858;51.108;8.068;2023-02-15T05:40:25;-2.40;99.90
45096;DHT22;30858;51.108;8.068;2023-02-15T05:42:51;-2.40;99.90
45096;DHT22;30858;51.108;8.068;2023-02-15T05:45:16;-2.40;99.90
45096;DHT22;30858;51.108;8.068;2023-02-15T05:47:42;-2.40;99.90
45096;DHT22;30858;51.108;8.068;2023-02-15T05:50:08;-2.40;99.90
45096;DHT22;30858;51.108;8.068;2023-02-15T05:52:34;-2.50;99.90
45096;DHT22;30858;51.108;8.068;2023-02-15T05:55:00;-2.50;99.90
45096;DHT22;30858;51.108;8.068;2023-02-15T05:57:27;-2.60;99.90
45096;DHT22;30858;51.108;8.068;2023-02-15T05:59:53;-2.60;99.90
45096;DHT22;30858;51.108;8.068;2023-02-15T06:02:18;-2.60;99.90
45096;DHT22;30858;51.108;8.068;2023-02-15T06:04:44;-2.50;99.90
45096;DHT22;30858;51.108;8.068;2023-02-15T06:07:09;-2.60;99.90
45096;DHT22;30858;51.108;8.068;2023-02-15T06:09:35;-2.50;99.90
45096;DHT22;30858;51.108;8.068;2023-02-15T06:12:00;-2.50;99.90
45096;DHT22;30858;51.108;8.068;2023-02-15T06:14:26;-2.50;99.90
45096;DHT22;30858;51.108;8.068;2023-02-15T06:16:51;-2.50;99.90
45096;DHT22;30858;51.108;8.068;2023-02-15T06:19:17;-2.60;99.90
45096;DHT22;30858;51.108;8.068;2023-02-15T06:21:43;-2.60;99.90
45096;DHT22;30858;51.108;8.068;2023-02-15T06:24:09;-2.60;99.90
45096;DHT22;30858;51.108;8.068;2023-02-15T06:26:35;-2.70;99.90
45096;DHT22;30858;51.108;8.068;2023-02-15T06:29:00;-2.70;99.90
45096;DHT22;30858;51.108;8.068;2023-02-15T06:31:26;-2.80;99.90
45096;DHT22;30858;51.108;8.068;2023-02-15T06:33:51;-2.80;99.90
45096;DHT22;30858;51.108;8.068;2023-02-15T06:36:17;-2.90;99.90
45096;DHT22;30858;51.108;8.068;2023-02-15T06:38:42;-2.90;99.90
45096;DHT22;30858;51.108;8.068;2023-02-15T06:41:08;-2.90;99.90
45096;DHT22;30858;51.108;8.068;2023-02-15T06:43:33;-2.90;99.90
45096;DHT22;30858;51.108;8.068;2023-02-15T06:45:59;-2.90;99.90
45096;DHT22;30858;51.108;8.068;2023-02-15T06:48:25;-2.70;99.90
45096;DHT22;30858;51.108;8.068;2023-02-15T06:50:51;-2.70;99.90
45096;DHT22;30858;51.108;8.068;2023-02-15T06:53:17;-2.60;99.90
45096;DHT22;30858;51.108;8.068;2023-02-15T06:55:42;-2.60;99.90
45096;DHT22;30858;51.108;8.068;2023-02-15T06:58:08;-2.70;99.90
45096;DHT22;30858;51.108;8.068;2023-02-15T07:00:33;-2.60;99.90
45096;DHT22;30858;51.108;8.068;2023-02-15T07:02:59;-2.60;99.90
45096;DHT22;30858;51.108;8.068;2023-02-15T07:05:27;-2.60;99.90
45096;DHT22;30858;51.108;8.068;2023-02-15T07:07:57;-2.60;99.90
45096;DHT22;30858;51.108;8.068;2023-02-15T07:10:22;-2.60;99.90
45096;DHT22;30858;51.108;8.068;2023-02-15T07:12:48;-2.60;99.90
45096;DHT22;30858;51.108;8.068;2023-02-15T07:15:15;-2.50;99.90
45096;DHT22;30858;51.108;8.068;2023-02-15T07:17:41;-2.50;99.90
45096;DHT22;30858;51.108;8.068;2023-02-15T07:20:19;-2.50;99.90
45096;DHT22;30858;51.108;8.068;2023-02-15T07:22:45;-2.50;99.90
45096;DHT22;30858;51.108;8.068;2023-02-15T07:25:12;-2.50;99.90
45096;DHT22;30858;51.108;8.068;2023-02-15T07:27:38;-2.50;99.90
45096;DHT22;30858;51.108;8.068;2023-02-15T07:30:09;-2.50;99.90
45096;DHT22;30858;51.108;8.068;2023-02-15T07:32:35;-2.40;99.90
45096;DHT22;30858;51.108;8.068;2023-02-15T07:35:01;-2.50;99.90
45096;DHT22;30858;51.108;8.068;2023-02-15T07:37:27;-2.50;99.90
45096;DHT22;30858;51.108;8.068;2023-02-15T07:39:53;-2.50;99.90
45096;DHT22;30858;51.108;8.068;2023-02-15T07:42:18;-2.40;99.90
45096;DHT22;30858;51.108;8.068;2023-02-15T07:44:45;-2.40;99.90
45096;DHT22;30858;51.108;8.068;2023-02-15T07:47:11;-2.30;99.90
45096;DHT22;30858;51.108;8.068;2023-02-15T07:49:37;-2.30;99.90
45096;DHT22;30858;51.108;8.068;2023-02-15T07:52:03;-2.20;99.90
45096;DHT22;30858;51.108;8.068;2023-02-15T07:54:29;-2.10;99.90
45096;DHT22;30858;51.108;8.068;2023-02-15T07:56:54;-2.10;99.90
45096;DHT22;30858;51.108;8.068;2023-02-15T07:59:20;-2.00;99.90
45096;DHT22;30858;51.108;8.068;2023-02-15T08:01:45;-1.90;99.90
45096;DHT22;30858;51.108;8.068;2023-02-15T08:04:11;-1.70;99.90
45096;DHT22;30858;51.108;8.068;2023-02-15T08:06:37;-1.70;99.90
45096;DHT22;30858;51.108;8.068;2023-02-15T08:09:07;-1.70;99.90
45096;DHT22;30858;51.108;8.068;2023-02-15T08:11:35;-1.60;99.90
45096;DHT22;30858;51.108;8.068;2023-02-15T08:14:19;-1.40;99.90
45096;DHT22;30858;51.108;8.068;2023-02-15T08:16:47;-0.90;99.90
45096;DHT22;30858;51.108;8.068;2023-02-15T08:19:24;-0.40;99.90
45096;DHT22;30858;51.108;8.068;2023-02-15T08:21:55;0.00;99.90
45096;DHT22;30858;51.108;8.068;2023-02-15T08:24:23;0.40;99.90
45096;DHT22;30858;51.108;8.068;2023-02-15T08:26:49;0.80;99.90
45096;DHT22;30858;51.108;8.068;2023-02-15T08:29:16;0.90;99.90
45096;DHT22;30858;51.108;8.068;2023-02-15T08:31:42;1.30;99.90
45096;DHT22;30858;51.108;8.068;2023-02-15T08:34:09;1.70;99.90
45096;DHT22;30858;51.108;8.068;2023-02-15T08:36:36;2.10;99.90
45096;DHT22;30858;51.108;8.068;2023-02-15T08:39:04;2.50;99.90
45096;DHT22;30858;51.108;8.068;2023-02-15T08:41:34;2.90;99.90
45096;DHT22;30858;51.108;8.068;2023-02-15T08:44:03;3.20;99.90
45096;DHT22;30858;51.108;8.068;2023-02-15T08:46:31;3.40;99.90
45096;DHT22;30858;51.108;8.068;2023-02-15T08:48:57;3.60;99.90
45096;DHT22;30858;51.108;8.068;2023-02-15T08:51:25;3.40;99.90
45096;DHT22;30858;51.108;8.068;2023-02-15T08:53:53;3.70;99.90
45096;DHT22;30858;51.108;8.068;2023-02-15T08:58:48;4.10;99.90
45096;DHT22;30858;51.108;8.068;2023-02-15T09:01:16;4.40;99.90
45096;DHT22;30858;51.108;8.068;2023-02-15T09:03:50;4.70;99.90
45096;DHT22;30858;51.108;8.068;2023-02-15T09:06:18;5.10;99.90
45096;DHT22;30858;51.108;8.068;2023-02-15T09:08:44;5.50;99.90
45096;DHT22;30858;51.108;8.068;2023-02-15T09:11:18;6.10;99.90
45096;DHT22;30858;51.108;8.068;2023-02-15T09:13:49;6.10;99.90
45096;DHT22;30858;51.108;8.068;2023-02-15T09:16:15;5.90;99.90
45096;DHT22;30858;51.108;8.068;2023-02-15T09:18:42;6.10;99.90
45096;DHT22;30858;51.108;8.068;2023-02-15T09:21:10;7.20;99.90
45096;DHT22;30858;51.108;8.068;2023-02-15T09:23:38;7.10;99.90
45096;DHT22;30858;51.108;8.068;2023-02-15T09:26:06;7.70;99.90
45096;DHT22;30858;51.108;8.068;2023-02-15T09:28:33;8.00;99.90
45096;DHT22;30858;51.108;8.068;2023-02-15T09:31:22;7.60;99.90
45096;DHT22;30858;51.108;8.068;2023-02-15T09:33:49;7.60;99.90
45096;DHT22;30858;51.108;8.068;2023-02-15T09:36:17;8.00;99.90
45096;DHT22;30858;51.108;8.068;2023-02-15T09:38:44;8.30;99.90
45096;DHT22;30858;51.108;8.068;2023-02-15T09:44:38;8.90;99.90
45096;DHT22;30858;51.108;8.068;2023-02-15T09:52:47;9.10;99.90
45096;DHT22;30858;51.108;8.068;2023-02-15T10:01:22;9.20;99.90
45096;DHT22;30858;51.108;8.068;2023-02-15T10:04:13;9.20;99.90
45096;DHT22;30858;51.108;8.068;2023-02-15T10:07:06;9.40;99.90
45096;DHT22;30858;51.108;8.068;2023-02-15T10:17:41;10.50;99.90
45096;DHT22;30858;51.108;8.068;2023-02-15T10:23:14;11.10;99.90
45096;DHT22;30858;51.108;8.068;2023-02-15T10:25:51;11.70;99.90
45096;DHT22;30858;51.108;8.068;2023-02-15T10:28:26;11.90;99.90
45096;DHT22;30858;51.108;8.068;2023-02-15T10:33:43;12.40;99.90
45096;DHT22;30858;51.108;8.068;2023-02-15T10:38:41;12.60;99.90
45096;DHT22;30858;51.108;8.068;2023-02-15T11:03:51;14.10;99.90
45096;DHT22;30858;51.108;8.068;2023-02-15T11:06:22;14.40;99.40
45096;DHT22;30858;51.108;8.068;2023-02-15T11:08:57;14.70;99.30
45096;DHT22;30858;51.108;8.068;2023-02-15T11:11:29;14.80;98.50
45096;DHT22;30858;51.108;8.068;2023-02-15T11:14:01;14.80;98.60
45096;DHT22;30858;51.108;8.068;2023-02-15T11:16:37;15.30;96.90
45096;DHT22;30858;51.108;8.068;2023-02-15T11:19:11;16.10;98.90
45096;DHT22;30858;51.108;8.068;2023-02-15T11:21:48;16.50;97.30
45096;DHT22;30858;51.108;8.068;2023-02-15T11:24:18;17.20;94.20
45096;DHT22;30858;51.108;8.068;2023-02-15T11:27:22;17.90;92.00
45096;DHT22;30858;51.108;8.068;2023-02-15T11:30:14;17.10;86.20
45096;DHT22;30858;51.108;8.068;2023-02-15T11:32:46;17.20;87.10
45096;DHT22;30858;51.108;8.068;2023-02-15T11:42:51;18.40;77.10
45096;DHT22;30858;51.108;8.068;2023-02-15T11:45:39;18.90;78.30
45096;DHT22;30858;51.108;8.068;2023-02-15T11:48:11;18.70;73.60
45096;DHT22;30858;51.108;8.068;2023-02-15T11:50:37;19.40;76.20
45096;DHT22;30858;51.108;8.068;2023-02-15T11:53:15;19.60;72.50
45096;DHT22;30858;51.108;8.068;2023-02-15T11:55:46;20.20;71.70
45096;DHT22;30858;51.108;8.068;2023-02-15T11:58:36;20.50;70.90
45096;DHT22;30858;51.108;8.068;2023-02-15T12:01:21;20.30;67.80
45096;DHT22;30858;51.108;8.068;2023-02-15T12:03:54;19.60;69.30
45096;DHT22;30858;51.108;8.068;2023-02-15T12:06:28;19.80;67.60
45096;DHT22;30858;51.108;8.068;2023-02-15T12:09:13;19.30;67.70
45096;DHT22;30858;51.108;8.068;2023-02-15T12:11:42;18.40;69.30
45096;DHT22;30858;51.108;8.068;2023-02-15T12:14:10;19.10;70.80
45096;DHT22;30858;51.108;8.068;2023-02-15T12:16:49;20.10;68.60
45096;DHT22;30858;51.108;8.068;2023-02-15T12:19:31;19.30;66.80
45096;DHT22;30858;51.108;8.068;2023-02-15T12:21:59;19.50;67.30
45096;DHT22;30858;51.108;8.068;2023-02-15T12:24:38;19.40;66.90
45096;DHT22;30858;51.108;8.068;2023-02-15T12:27:24;18.60;68.40
45096;DHT22;30858;51.108;8.068;2023-02-15T12:29:53;19.10;67.30
45096;DHT22;30858;51.108;8.068;2023-02-15T12:32:26;19.50;67.20
45096;DHT22;30858;51.108;8.068;2023-02-15T12:34:59;19.80;66.20
45096;DHT22;30858;51.108;8.068;2023-02-15T12:37:28;19.50;65.60
45096;DHT22;30858;51.108;8.068;2023-02-15T12:39:59;19.60;64.80
45096;DHT22;30858;51.108;8.068;2023-02-15T12:42:26;20.50;65.90
45096;DHT22;30858;51.108;8.068;2023-02-15T12:44:56;20.20;64.20
45096;DHT22;30858;51.108;8.068;2023-02-15T12:47:22;20.40;64.60
45096;DHT22;30858;51.108;8.068;2023-02-15T12:50:14;20.20;63.00
45096;DHT22;30858;51.108;8.068;2023-02-15T12:52:48;20.00;62.90
45096;DHT22;30858;51.108;8.068;2023-02-15T12:55:26;19.40;63.80
45096;DHT22;30858;51.108;8.068;2023-02-15T13:00:39;20.20;63.10
45096;DHT22;30858;51.108;8.068;2023-02-15T13:03:04;20.70;63.50
45096;DHT22;30858;51.108;8.068;2023-02-15T13:05:43;21.10;62.50
45096;DHT22;30858;51.108;8.068;2023-02-15T13:08:10;20.90;61.40
45096;DHT22;30858;51.108;8.068;2023-02-15T13:13:20;21.20;61.40
45096;DHT22;30858;51.108;8.068;2023-02-15T13:15:49;21.20;61.80
45096;DHT22;30858;51.108;8.068;2023-02-15T13:18:32;20.80;61.50
45096;DHT22;30858;51.108;8.068;2023-02-15T13:23:55;22.10;61.70
45096;DHT22;30858;51.108;8.068;2023-02-15T13:26:23;22.20;59.60
45096;DHT22;30858;51.108;8.068;2023-02-15T13:28:54;21.10;60.90
45096;DHT22;30858;51.108;8.068;2023-02-15T13:31:23;21.20;60.40
45096;DHT22;30858;51.108;8.068;2023-02-15T13:37:17;21.40;59.10
45096;DHT22;30858;51.108;8.068;2023-02-15T13:39:58;21.00;60.80
45096;DHT22;30858;51.108;8.068;2023-02-15T13:42:38;20.90;59.70
45096;DHT22;30858;51.108;8.068;2023-02-15T13:45:25;21.10;60.70
45096;DHT22;30858;51.108;8.068;2023-02-15T13:48:01;21.20;59.60
45096;DHT22;30858;51.108;8.068;2023-02-15T13:59:01;19.90;59.90
45096;DHT22;30858;51.108;8.068;2023-02-15T14:04:35;19.30;61.70
45096;DHT22;30858;51.108;8.068;2023-02-15T14:07:20;19.50;61.40
45096;DHT22;30858;51.108;8.068;2023-02-15T14:10:06;18.90;61.80
45096;DHT22;30858;51.108;8.068;2023-02-15T14:13:19;19.00;62.00
45096;DHT22;30858;51.108;8.068;2023-02-15T14:15:56;19.40;60.70
45096;DHT22;30858;51.108;8.068;2023-02-15T14:18:44;19.70;60.20
45096;DHT22;30858;51.108;8.068;2023-02-15T14:27:14;20.90;59.30
45096;DHT22;30858;51.108;8.068;2023-02-15T14:29:57;21.50;58.10
45096;DHT22;30858;51.108;8.068;2023-02-15T14:32:38;20.50;57.90
45096;DHT22;30858;51.108;8.068;2023-02-15T14:35:13;20.90;58.30
45096;DHT22;30858;51.108;8.068;2023-02-15T14:40:51;20.50;59.00
45096;DHT22;30858;51.108;8.068;2023-02-15T14:43:32;21.10;57.80
45096;DHT22;30858;51.108;8.068;2023-02-15T14:46:16;22.30;60.50
45096;DHT22;30858;51.108;8.068;2023-02-15T14:48:54;21.90;58.90
45096;DHT22;30858;51.108;8.068;2023-02-15T15:02:46;21.90;57.30
45096;DHT22;30858;51.108;8.068;2023-02-15T15:05:24;21.40;57.70
45096;DHT22;30858;51.108;8.068;2023-02-15T15:07:55;20.90;58.70
45096;DHT22;30858;51.108;8.068;2023-02-15T15:12:49;19.30;59.50
45096;DHT22;30858;51.108;8.068;2023-02-15T15:18:09;17.70;61.80
45096;DHT22;30858;51.108;8.068;2023-02-15T15:25:44;15.40;67.10
45096;DHT22;30858;51.108;8.068;2023-02-15T15:34:19;14.30;73.20
45096;DHT22;30858;51.108;8.068;2023-02-15T15:37:12;13.90;74.00
45096;DHT22;30858;51.108;8.068;2023-02-15T15:45:23;13.50;77.70
45096;DHT22;30858;51.108;8.068;2023-02-15T15:50:44;13.10;79.10
45096;DHT22;30858;51.108;8.068;2023-02-15T15:53:20;12.70;82.40
45096;DHT22;30858;51.108;8.068;2023-02-15T15:55:48;12.40;83.80
45096;DHT22;30858;51.108;8.068;2023-02-15T15:58:17;12.30;86.20
45096;DHT22;30858;51.108;8.068;2023-02-15T16:01:08;12.20;89.50
45096;DHT22;30858;51.108;8.068;2023-02-15T16:03:34;11.70;90.70
45096;DHT22;30858;51.108;8.068;2023-02-15T16:06:00;11.60;91.80
45096;DHT22;30858;51.108;8.068;2023-02-15T16:08:43;11.40;92.50
45096;DHT22;30858;51.108;8.068;2023-02-15T16:11:24;11.10;93.50
45096;DHT22;30858;51.108;8.068;2023-02-15T16:13:49;10.90;94.90
45096;DHT22;30858;51.108;8.068;2023-02-15T16:16:24;10.90;94.60
45096;DHT22;30858;51.108;8.068;2023-02-15T16:18:53;10.90;94.40
45096;DHT22;30858;51.108;8.068;2023-02-15T16:21:28;10.70;95.00
45096;DHT22;30858;51.108;8.068;2023-02-15T16:24:16;10.60;95.60
45096;DHT22;30858;51.108;8.068;2023-02-15T16:29:30;10.30;98.20
45096;DHT22;30858;51.108;8.068;2023-02-15T16:32:01;9.90;99.90
45096;DHT22;30858;51.108;8.068;2023-02-15T16:34:27;9.80;99.90
45096;DHT22;30858;51.108;8.068;2023-02-15T16:37:15;9.80;99.90
45096;DHT22;30858;51.108;8.068;2023-02-15T16:39:42;9.70;99.90
45096;DHT22;30858;51.108;8.068;2023-02-15T16:42:08;9.70;99.90
45096;DHT22;30858;51.108;8.068;2023-02-15T16:44:35;9.60;99.90
45096;DHT22;30858;51.108;8.068;2023-02-15T16:47:00;9.50;99.90
45096;DHT22;30858;51.108;8.068;2023-02-15T16:49:28;9.40;99.90
45096;DHT22;30858;51.108;8.068;2023-02-15T16:51:56;9.30;99.90
45096;DHT22;30858;51.108;8.068;2023-02-15T16:54:25;9.10;99.90
45096;DHT22;30858;51.108;8.068;2023-02-15T16:56:52;9.10;99.90
45096;DHT22;30858;51.108;8.068;2023-02-15T16:59:39;9.00;99.90
45096;DHT22;30858;51.108;8.068;2023-02-15T17:02:17;9.00;99.90
45096;DHT22;30858;51.108;8.068;2023-02-15T17:04:42;8.90;99.90
45096;DHT22;30858;51.108;8.068;2023-02-15T17:07:19;8.80;99.90
45096;DHT22;30858;51.108;8.068;2023-02-15T17:09:53;8.60;99.90
45096;DHT22;30858;51.108;8.068;2023-02-15T17:12:44;8.60;99.90
45096;DHT22;30858;51.108;8.068;2023-02-15T17:15:32;8.40;99.90
45096;DHT22;30858;51.108;8.068;2023-02-15T17:20:37;8.10;99.90
45096;DHT22;30858;51.108;8.068;2023-02-15T17:23:04;8.00;99.90
45096;DHT22;30858;51.108;8.068;2023-02-15T17:25:38;8.00;99.90
45096;DHT22;30858;51.108;8.068;2023-02-15T17:28:14;7.90;99.90
45096;DHT22;30858;51.108;8.068;2023-02-15T17:30:40;7.80;99.90
45096;DHT22;30858;51.108;8.068;2023-02-15T17:33:25;7.80;99.90
45096;DHT22;30858;51.108;8.068;2023-02-15T17:36:08;7.70;99.90
45096;DHT22;30858;51.108;8.068;2023-02-15T17:38:35;7.50;99.90
45096;DHT22;30858;51.108;8.068;2023-02-15T17:41:01;7.50;99.90
45096;DHT22;30858;51.108;8.068;2023-02-15T17:43:27;7.40;99.90
45096;DHT22;30858;51.108;8.068;2023-02-15T17:45:52;7.30;99.90
45096;DHT22;30858;51.108;8.068;2023-02-15T17:48:30;7.20;99.90
45096;DHT22;30858;51.108;8.068;2023-02-15T17:50:58;7.10;99.90
45096;DHT22;30858;51.108;8.068;2023-02-15T17:53:24;7.10;99.90
45096;DHT22;30858;51.108;8.068;2023-02-15T17:55:50;6.90;99.90
45096;DHT22;30858;51.108;8.068;2023-02-15T17:58:17;6.90;99.90
45096;DHT22;30858;51.108;8.068;2023-02-15T18:01:12;6.90;99.90
45096;DHT22;30858;51.108;8.068;2023-02-15T18:03:57;6.80;99.90
45096;DHT22;30858;51.108;8.068;2023-02-15T18:06:42;6.80;99.90
45096;DHT22;30858;51.108;8.068;2023-02-15T18:09:27;6.70;99.90
45096;DHT22;30858;51.108;8.068;2023-02-15T18:12:26;6.70;99.90
45096;DHT22;30858;51.108;8.068;2023-02-15T18:14:52;6.60;99.90
45096;DHT22;30858;51.108;8.068;2023-02-15T18:17:28;6.50;99.90
45096;DHT22;30858;51.108;8.068;2023-02-15T18:19:54;6.40;99.90
45096;DHT22;30858;51.108;8.068;2023-02-15T18:22:20;6.30;99.90
45096;DHT22;30858;51.108;8.068;2023-02-15T18:24:47;6.20;99.90
45096;DHT22;30858;51.108;8.068;2023-02-15T18:27:13;6.10;99.90
45096;DHT22;30858;51.108;8.068;2023-02-15T18:29:39;6.00;99.90
45096;DHT22;30858;51.108;8.068;2023-02-15T18:32:15;5.90;99.90
45096;DHT22;30858;51.108;8.068;2023-02-15T18:34:43;5.80;99.90
45096;DHT22;30858;51.108;8.068;2023-02-15T18:37:30;5.80;99.90
45096;DHT22;30858;51.108;8.068;2023-02-15T18:39:58;5.70;99.90
45096;DHT22;30858;51.108;8.068;2023-02-15T18:45:00;5.60;99.90
45096;DHT22;30858;51.108;8.068;2023-02-15T18:47:27;5.50;99.90
45096;DHT22;30858;51.108;8.068;2023-02-15T18:49:53;5.40;99.90
45096;DHT22;30858;51.108;8.068;2023-02-15T18:52:22;5.30;99.90